Terminal Aerodrome Forecast
Issued by NWS Mobile, AL

Home | Current Version | Previous Version | Text Only | Print | Product List | Glossary On
Versions: 1 2 3 4 5 6 7 8 9 10 11 12 13 14 15 16 17 18 19 20 21 22 23 24 25 26 27 28 29 30 31 32
000
FTUS44 KMOB 220959 AAC
TAFMOB
TAF AMD
KMOB 220959Z 2210/2306 VRB03KT P6SM -RA VCTS BKN020CB OVC040
     FM221200 20006KT P6SM VCTS SCT020CB BKN250
      TEMPO 2213/2217 3SM TSRA BKN020CB
     FM230100 20006KT P6SM SCT250=

USA.gov is the U.S. government's official web portal to all federal, state and local government web resources and services.